createdAt,value
2019-04-16T00:00:28.724Z,53.71
2019-04-16T00:01:28.709Z,53.81
2019-04-16T00:02:28.720Z,54.33
2019-04-16T00:03:28.689Z,52.78
2019-04-16T00:04:28.682Z,53.09
2019-04-16T00:05:28.669Z,53.41
2019-04-16T00:06:28.668Z,52.89
2019-04-16T00:07:28.674Z,52.99
2019-04-16T00:08:28.644Z,53.92
2019-04-16T00:09:28.626Z,53.20
2019-04-16T00:10:28.613Z,53.30
2019-04-16T00:11:28.607Z,53.20
2019-04-16T00:12:28.637Z,52.89
2019-04-16T00:13:28.587Z,53.41
2019-04-16T00:14:28.587Z,53.41
2019-04-16T00:15:28.562Z,52.69
2019-04-16T00:16:28.551Z,53.30
2019-04-16T00:17:28.543Z,53.81
2019-04-16T00:18:28.559Z,53.81
2019-04-16T00:19:28.523Z,53.50
2019-04-16T00:20:28.520Z,52.58
2019-04-16T00:21:28.506Z,52.69
2019-04-16T00:22:28.486Z,53.50
2019-04-16T00:23:28.521Z,53.09
2019-04-16T00:24:28.467Z,52.89
2019-04-16T00:25:28.466Z,52.89
2019-04-16T00:26:28.448Z,53.30
2019-04-16T00:27:29.358Z,52.69
2019-04-16T00:28:30.823Z,53.50
2019-04-16T00:29:32.613Z,53.22
2019-04-16T00:30:29.408Z,53.22
2019-04-16T00:31:28.395Z,53.53
2019-04-16T00:32:28.383Z,53.61
2019-04-16T00:33:28.397Z,53.53
2019-04-16T00:34:28.366Z,52.71
2019-04-16T00:35:28.353Z,52.89
2019-04-16T00:36:28.358Z,52.69
2019-04-16T00:37:28.334Z,52.78
2019-04-16T00:38:40.003Z,52.69
2019-04-16T00:39:29.298Z,52.78
2019-04-16T00:40:28.294Z,52.81
2019-04-16T00:41:28.292Z,53.22
2019-04-16T00:42:28.278Z,53.04
2019-04-16T00:43:28.295Z,53.43
2019-04-16T00:44:28.330Z,53.84
2019-04-16T00:45:28.245Z,53.94
2019-04-16T00:46:28.232Z,53.04
2019-04-16T00:47:28.224Z,53.45
2019-04-16T00:48:28.234Z,53.12
2019-04-16T00:49:28.211Z,52.91
2019-04-16T00:50:28.191Z,53.63
2019-04-16T00:51:28.178Z,53.14
2019-04-16T00:52:28.167Z,53.25
2019-04-16T00:53:28.194Z,53.25
2019-04-16T00:54:28.152Z,52.81
2019-04-16T00:55:28.138Z,52.71
2019-04-16T00:56:28.126Z,53.22
2019-04-16T00:57:28.118Z,53.43
2019-04-16T00:58:28.136Z,53.56
2019-04-16T00:59:28.094Z,53.86
2019-04-16T01:00:30.595Z,53.14
2019-04-16T01:01:28.074Z,53.04
2019-04-16T01:02:28.062Z,53.25
2019-04-16T01:03:28.074Z,53.14
2019-04-16T01:04:28.038Z,53.04
2019-04-16T01:05:28.030Z,53.04
2019-04-16T01:06:28.024Z,53.25
2019-04-16T01:07:28.012Z,53.56
2019-04-16T01:08:28.084Z,52.73
2019-04-16T01:09:27.989Z,53.43
2019-04-16T01:10:27.978Z,52.81
2019-04-16T01:11:27.968Z,51.89
2019-04-16T01:12:27.964Z,52.50
2019-04-16T01:13:28.043Z,52.73
2019-04-16T01:14:27.938Z,52.94
2019-04-16T01:15:29.263Z,52.63
2019-04-16T01:16:30.253Z,52.73
2019-04-16T01:17:27.905Z,52.94
2019-04-16T01:18:27.918Z,52.73
2019-04-16T01:19:27.878Z,52.63
2019-04-16T01:20:27.871Z,53.35
2019-04-16T01:21:27.889Z,52.83
2019-04-16T01:22:27.847Z,53.35
2019-04-16T01:23:27.862Z,52.96
2019-04-16T01:24:27.830Z,52.73
2019-04-16T01:25:27.815Z,52.94
2019-04-16T01:26:27.814Z,52.83
2019-04-16T01:27:28.769Z,52.53
2019-04-16T01:28:29.431Z,52.73
2019-04-16T01:29:27.784Z,53.45
2019-04-16T01:30:27.764Z,53.86
2019-04-16T01:31:27.759Z,52.83
2019-04-16T01:32:27.739Z,53.58
2019-04-16T01:33:27.775Z,52.94
2019-04-16T01:34:27.723Z,52.86
2019-04-16T01:35:27.718Z,52.76
2019-04-16T01:36:27.701Z,53.38
2019-04-16T01:37:27.685Z,53.68
2019-04-16T01:38:28.602Z,53.68
2019-04-16T01:39:27.712Z,52.94
2019-04-16T01:40:27.654Z,53.45
2019-04-16T01:41:27.656Z,53.68
2019-04-16T01:42:27.636Z,53.48
2019-04-16T01:43:27.622Z,52.83
2019-04-16T01:44:29.466Z,53.99
2019-04-16T01:45:29.822Z,53.38
2019-04-16T01:46:27.755Z,53.48
2019-04-16T01:47:27.583Z,52.96
2019-04-16T01:48:27.570Z,53.58
2019-04-16T01:49:27.584Z,53.58
2019-04-16T01:50:27.550Z,53.27
2019-04-16T01:51:27.541Z,53.06
2019-04-16T01:52:27.530Z,53.17
2019-04-16T01:53:27.517Z,53.27
2019-04-16T01:54:27.543Z,53.30
2019-04-16T01:55:27.494Z,54.02
2019-04-16T01:56:28.846Z,53.50
2019-04-16T01:57:28.410Z,53.30
2019-04-16T01:58:27.467Z,53.30
2019-04-16T01:59:27.483Z,53.06
2019-04-16T02:00:27.456Z,53.30
2019-04-16T02:01:27.435Z,52.98
2019-04-16T02:02:27.432Z,52.88
2019-04-16T02:03:27.407Z,54.12
2019-04-16T02:04:27.423Z,54.02
2019-04-16T02:05:27.388Z,54.12
2019-04-16T02:06:27.382Z,52.98
2019-04-16T02:07:27.954Z,53.09
2019-04-16T02:08:28.290Z,53.91
2019-04-16T02:09:27.370Z,53.81
2019-04-16T02:10:27.336Z,53.40
2019-04-16T02:11:27.323Z,54.35
2019-04-16T02:12:27.319Z,54.12
2019-04-16T02:13:27.317Z,53.63
2019-04-16T02:14:27.325Z,54.04
2019-04-16T02:15:27.292Z,54.02
2019-04-16T02:16:27.283Z,53.53
2019-04-16T02:17:27.755Z,54.02
2019-04-16T02:18:29.683Z,52.98
2019-04-16T02:19:27.268Z,53.50
2019-04-16T02:20:27.229Z,53.22
2019-04-16T02:21:27.232Z,54.22
2019-04-16T02:22:27.213Z,53.94
2019-04-16T02:23:27.199Z,54.04
2019-04-16T02:24:27.202Z,54.77
2019-04-16T02:25:27.174Z,54.04
2019-04-16T02:26:27.169Z,53.83
2019-04-16T02:27:27.257Z,53.94
2019-04-16T02:28:28.314Z,54.25
2019-04-16T02:29:29.784Z,54.35
2019-04-16T02:30:27.124Z,54.56
2019-04-16T02:31:27.122Z,53.83
2019-04-16T02:32:27.105Z,54.02
2019-04-16T02:33:27.103Z,53.19
2019-04-16T02:34:27.118Z,53.42
2019-04-16T02:35:27.079Z,54.35
2019-04-16T02:36:27.058Z,54.56
2019-04-16T02:37:27.047Z,54.14
2019-04-16T02:38:27.042Z,54.25
2019-04-16T02:39:46.508Z,54.14
2019-04-16T02:40:28.017Z,54.56
2019-04-16T02:41:27.010Z,54.35
2019-04-16T02:42:30.467Z,54.25
2019-04-16T02:43:26.998Z,54.33
2019-04-16T02:44:27.019Z,54.04
2019-04-16T02:45:26.966Z,53.83
2019-04-16T02:46:30.610Z,53.94
2019-04-16T02:47:27.939Z,53.74
2019-04-16T02:48:26.936Z,53.83
2019-04-16T02:49:26.934Z,54.25
2019-04-16T02:50:30.951Z,54.90
2019-04-16T02:51:27.902Z,54.58
2019-04-16T02:52:26.894Z,54.79
2019-04-16T02:53:26.878Z,54.79
2019-04-16T02:54:32.447Z,54.48
2019-04-16T02:55:27.889Z,54.69
2019-04-16T02:56:26.847Z,54.58
2019-04-16T02:57:27.921Z,54.58
2019-04-16T02:58:33.302Z,54.48
2019-04-16T02:59:27.816Z,55.20
2019-04-16T03:00:26.838Z,54.79
2019-04-16T03:01:26.794Z,54.90
2019-04-16T03:02:26.784Z,54.69
2019-04-16T03:03:26.811Z,54.38
2019-04-16T03:04:27.707Z,54.58
2019-04-16T03:05:29.117Z,54.58
2019-04-16T03:06:31.641Z,55.20
2019-04-16T03:07:27.733Z,54.27
2019-04-16T03:08:26.725Z,54.58
2019-04-16T03:09:26.706Z,54.90
2019-04-16T03:10:26.725Z,54.79
2019-04-16T03:11:26.689Z,54.58
2019-04-16T03:12:26.706Z,54.90
2019-04-16T03:13:26.677Z,54.48
2019-04-16T03:14:29.705Z,54.17
2019-04-16T03:15:26.653Z,54.14
2019-04-16T03:16:26.640Z,54.38
2019-04-16T03:17:26.652Z,54.50
2019-04-16T03:18:26.620Z,55.10
2019-04-16T03:19:26.614Z,54.82
2019-04-16T03:20:26.606Z,54.90
2019-04-16T03:21:27.534Z,54.48
2019-04-16T03:22:26.598Z,54.69
2019-04-16T03:23:26.567Z,54.58
2019-04-16T03:24:26.553Z,54.90
2019-04-16T03:25:26.551Z,54.17
2019-04-16T03:26:26.538Z,55.10
2019-04-16T03:27:26.579Z,54.90
2019-04-16T03:28:27.336Z,55.23
2019-04-16T03:29:27.488Z,55.43
2019-04-16T03:30:26.498Z,55.30
2019-04-16T03:31:26.483Z,55.23
2019-04-16T03:32:33.611Z,55.23
2019-04-16T03:33:27.457Z,54.90
2019-04-16T03:34:26.454Z,54.92
2019-04-16T03:35:26.889Z,55.10
2019-04-16T03:36:29.067Z,55.13
2019-04-16T03:37:26.444Z,54.58
2019-04-16T03:38:26.411Z,54.50
2019-04-16T03:39:26.394Z,54.50
2019-04-16T03:40:26.390Z,54.92
2019-04-16T03:41:26.375Z,54.61
2019-04-16T03:42:27.385Z,54.61
2019-04-16T03:43:26.361Z,54.61
2019-04-16T03:44:26.347Z,54.61
2019-04-16T03:45:26.343Z,54.50
2019-04-16T03:46:26.320Z,54.61
2019-04-16T03:47:26.337Z,54.48
2019-04-16T03:48:26.313Z,54.19
2019-04-16T03:49:27.787Z,54.61
2019-04-16T03:50:31.016Z,55.13
2019-04-16T03:51:27.266Z,54.82
2019-04-16T03:52:26.288Z,54.82
2019-04-16T03:53:26.256Z,54.82
2019-04-16T03:54:26.245Z,54.71
2019-04-16T03:55:26.554Z,54.61
2019-04-16T03:56:27.548Z,55.43
2019-04-16T03:57:26.262Z,55.23
2019-04-16T03:58:26.197Z,54.71
2019-04-16T03:59:26.268Z,55.13
2019-04-16T04:00:26.171Z,54.71
2019-04-16T04:01:26.167Z,54.92
2019-04-16T04:02:26.151Z,55.13
2019-04-16T04:03:26.909Z,54.71
2019-04-16T04:04:28.912Z,55.43
2019-04-16T04:05:26.132Z,54.94
2019-04-16T04:06:26.110Z,54.84
2019-04-16T04:07:26.100Z,55.43
2019-04-16T04:08:26.118Z,55.43
2019-04-16T04:09:26.078Z,55.33
2019-04-16T04:10:30.842Z,55.36
2019-04-16T04:11:27.059Z,55.43
2019-04-16T04:12:27.763Z,55.43
2019-04-16T04:13:26.083Z,55.13
2019-04-16T04:14:26.031Z,54.82
2019-04-16T04:15:27.115Z,55.33
2019-04-16T04:16:26.015Z,55.05
2019-04-16T04:17:26.004Z,54.74
2019-04-16T04:18:26.017Z,55.26
2019-04-16T04:19:25.982Z,55.23
2019-04-16T04:20:25.968Z,54.50
2019-04-16T04:21:25.956Z,54.63
2019-04-16T04:22:26.649Z,55.02
2019-04-16T04:23:28.675Z,55.36
2019-04-16T04:24:28.547Z,55.05
2019-04-16T04:25:26.909Z,55.15
2019-04-16T04:26:25.898Z,55.46
2019-04-16T04:27:25.891Z,54.82
2019-04-16T04:28:25.993Z,55.33
2019-04-16T04:29:25.879Z,55.13
2019-04-16T04:30:28.811Z,54.61
2019-04-16T04:31:25.848Z,55.15
2019-04-16T04:32:25.840Z,55.02
2019-04-16T04:33:25.862Z,54.61
2019-04-16T04:34:25.834Z,54.82
2019-04-16T04:35:25.806Z,54.82
2019-04-16T04:36:26.985Z,54.61
2019-04-16T04:37:30.919Z,54.40
2019-04-16T04:38:26.803Z,54.30
2019-04-16T04:39:25.767Z,54.50
2019-04-16T04:40:25.755Z,54.82
2019-04-16T04:41:25.743Z,54.50
2019-04-16T04:42:28.363Z,55.46
2019-04-16T04:43:25.750Z,54.82
2019-04-16T04:44:25.710Z,54.63
2019-04-16T04:45:25.709Z,54.71
2019-04-16T04:46:25.698Z,55.13
2019-04-16T04:47:25.679Z,54.94
2019-04-16T04:48:25.702Z,54.92
2019-04-16T04:49:30.137Z,54.82
2019-04-16T04:50:26.649Z,54.53
2019-04-16T04:51:25.642Z,54.92
2019-04-16T04:52:27.354Z,54.53
2019-04-16T04:53:25.645Z,55.43
2019-04-16T04:54:25.609Z,55.15
2019-04-16T04:55:26.863Z,55.46
2019-04-16T04:56:27.939Z,55.43
2019-04-16T04:57:25.578Z,55.36
2019-04-16T04:58:25.607Z,55.46
2019-04-16T04:59:25.556Z,54.63
2019-04-16T05:00:25.543Z,55.43
2019-04-16T05:01:25.535Z,55.23
2019-04-16T05:02:25.523Z,54.50
2019-04-16T05:03:25.520Z,54.61
2019-04-16T05:04:25.551Z,54.82
2019-04-16T05:05:25.926Z,54.82
2019-04-16T05:06:27.848Z,54.69
2019-04-16T05:07:25.726Z,53.53
2019-04-16T05:08:25.464Z,52.86
2019-04-16T05:09:25.509Z,51.81
2019-04-16T05:10:25.475Z,52.32
2019-04-16T05:11:25.430Z,51.60
2019-04-16T05:12:25.428Z,51.26
2019-04-16T05:13:25.407Z,51.16
2019-04-16T05:14:26.097Z,50.73
2019-04-16T05:15:26.507Z,50.32
2019-04-16T05:16:25.413Z,50.24
2019-04-16T05:17:25.369Z,50.01
2019-04-16T05:18:25.360Z,50.01
2019-04-16T05:19:25.383Z,49.90
2019-04-16T05:20:25.332Z,50.62
2019-04-16T05:21:25.335Z,50.01
2019-04-16T05:22:25.317Z,49.90
2019-04-16T05:23:26.092Z,50.21
2019-04-16T05:24:28.903Z,49.70
2019-04-16T05:25:25.284Z,48.98
2019-04-16T05:26:25.273Z,49.24
2019-04-16T05:27:25.265Z,48.85
2019-04-16T05:28:25.251Z,48.75
2019-04-16T05:29:25.266Z,48.42
2019-04-16T05:30:25.230Z,48.52
2019-04-16T05:31:26.196Z,48.42
2019-04-16T05:32:25.992Z,48.01
2019-04-16T05:33:25.205Z,48.93
2019-04-16T05:34:37.356Z,48.44
2019-04-16T05:35:25.176Z,48.01
2019-04-16T05:36:25.165Z,48.42
2019-04-16T05:37:25.161Z,47.45
2019-04-16T05:38:25.140Z,47.76
2019-04-16T05:39:28.132Z,47.55
2019-04-16T05:40:27.627Z,47.22
2019-04-16T05:41:26.112Z,47.02
2019-04-16T05:42:26.257Z,47.02
2019-04-16T05:43:30.020Z,47.14
2019-04-16T05:44:26.105Z,46.30
2019-04-16T05:45:25.068Z,46.20
2019-04-16T05:46:25.058Z,47.12
2019-04-16T05:47:25.187Z,46.71
2019-04-16T05:48:25.037Z,46.40
2019-04-16T05:49:26.167Z,47.45
2019-04-16T05:50:28.754Z,46.94
2019-04-16T05:51:25.013Z,46.91
2019-04-16T05:52:25.163Z,46.79
2019-04-16T05:53:24.985Z,46.15
2019-04-16T05:54:25.002Z,46.28
2019-04-16T05:55:24.961Z,45.95
2019-04-16T05:56:25.260Z,45.31
2019-04-16T05:57:26.196Z,44.80
2019-04-16T05:58:27.768Z,44.68
2019-04-16T05:59:25.943Z,44.68
2019-04-16T06:00:24.910Z,44.57
2019-04-16T06:01:24.898Z,44.59
2019-04-16T06:02:24.890Z,45.51
2019-04-16T06:03:24.877Z,45.84
2019-04-16T06:04:25.727Z,45.29
2019-04-16T06:05:27.909Z,45.42
2019-04-16T06:06:24.849Z,45.84
2019-04-16T06:07:24.836Z,46.25
2019-04-16T06:08:24.827Z,46.15
2019-04-16T06:09:24.825Z,45.31
2019-04-16T06:10:24.827Z,45.83
2019-04-16T06:11:29.252Z,44.45
2019-04-16T06:12:25.782Z,44.64
2019-04-16T06:13:24.771Z,44.64
2019-04-16T06:14:25.952Z,44.57
2019-04-16T06:15:24.782Z,44.23
2019-04-16T06:16:25.750Z,44.32
2019-04-16T06:17:25.878Z,44.14
2019-04-16T06:18:24.714Z,44.86
2019-04-16T06:19:24.707Z,44.12
2019-04-16T06:20:24.716Z,44.00
2019-04-16T06:21:25.760Z,43.88
2019-04-16T06:22:28.571Z,43.12
2019-04-16T06:23:24.713Z,43.28
2019-04-16T06:24:24.653Z,43.82
2019-04-16T06:25:24.673Z,43.77
2019-04-16T06:26:24.632Z,43.79
2019-04-16T06:27:24.619Z,44.41
2019-04-16T06:28:24.609Z,43.88
2019-04-16T06:29:25.379Z,43.65
2019-04-16T06:30:24.636Z,42.69
2019-04-16T06:31:24.583Z,41.61
2019-04-16T06:32:27.736Z,41.20
2019-04-16T06:33:24.559Z,41.97
2019-04-16T06:34:24.698Z,43.85
2019-04-16T06:35:24.795Z,43.02
2019-04-16T06:36:24.533Z,42.59
2019-04-16T06:37:27.182Z,41.77
2019-04-16T06:38:24.501Z,42.71
2019-04-16T06:39:26.535Z,44.06
2019-04-16T06:40:25.524Z,43.82
2019-04-16T06:41:24.480Z,43.49
2019-04-16T06:42:24.467Z,42.57
2019-04-16T06:43:26.173Z,42.79
2019-04-16T06:44:24.436Z,43.79
2019-04-16T06:45:24.424Z,41.83
2019-04-16T06:46:24.447Z,41.12
2019-04-16T06:47:24.415Z,42.59
2019-04-16T06:48:24.399Z,42.59
2019-04-16T06:49:24.434Z,42.97
2019-04-16T06:50:32.116Z,43.24
2019-04-16T06:51:25.401Z,43.12
2019-04-16T06:52:24.353Z,43.73
2019-04-16T06:53:25.102Z,42.65
2019-04-16T06:54:25.560Z,41.33
2019-04-16T06:55:24.320Z,40.66
2019-04-16T06:56:24.343Z,40.47
2019-04-16T06:57:26.943Z,42.04
2019-04-16T06:58:27.216Z,42.53
2019-04-16T06:59:26.578Z,41.61
2019-04-16T07:00:25.263Z,42.12
2019-04-16T07:01:24.288Z,41.55
2019-04-16T07:02:24.999Z,43.08
2019-04-16T07:03:27.005Z,43.04
2019-04-16T07:04:24.225Z,41.73
2019-04-16T07:05:24.335Z,41.82
2019-04-16T07:06:24.245Z,41.51
2019-04-16T07:07:24.192Z,41.61
2019-04-16T07:08:36.832Z,41.49
2019-04-16T07:09:26.428Z,41.69
2019-04-16T07:10:25.462Z,40.14
2019-04-16T07:11:24.151Z,42.35
2019-04-16T07:12:24.209Z,42.53
2019-04-16T07:13:24.135Z,40.98
2019-04-16T07:14:24.127Z,42.65
2019-04-16T07:15:27.861Z,42.33
2019-04-16T07:16:27.970Z,41.69
2019-04-16T07:17:24.113Z,41.20
2019-04-16T07:18:24.076Z,42.33
2019-04-16T07:19:24.067Z,41.92
2019-04-16T07:20:24.056Z,41.37
2019-04-16T07:21:24.048Z,40.01
2019-04-16T07:22:24.072Z,40.64
2019-04-16T07:23:25.546Z,41.06
2019-04-16T07:24:29.486Z,40.96
2019-04-16T07:25:27.886Z,41.59
2019-04-16T07:26:23.992Z,41.80
2019-04-16T07:27:24.099Z,41.75
2019-04-16T07:28:25.782Z,39.87
2019-04-16T07:29:24.024Z,38.45
2019-04-16T07:30:24.037Z,40.41
2019-04-16T07:31:33.293Z,39.92
2019-04-16T07:32:25.147Z,41.35
2019-04-16T07:33:23.923Z,40.37
2019-04-16T07:34:23.913Z,39.76
2019-04-16T07:35:26.959Z,38.68
2019-04-16T07:36:24.224Z,37.46
2019-04-16T07:37:23.910Z,37.56
2019-04-16T07:38:23.888Z,36.99
2019-04-16T07:39:30.116Z,37.93
2019-04-16T07:40:24.841Z,38.65
2019-04-16T07:41:23.830Z,39.17
2019-04-16T07:42:26.340Z,38.67
2019-04-16T07:43:23.889Z,38.73
2019-04-16T07:44:23.805Z,37.84
2019-04-16T07:45:23.790Z,38.10
2019-04-16T07:46:23.798Z,37.61
2019-04-16T07:47:23.764Z,37.49
2019-04-16T07:48:23.785Z,37.05
2019-04-16T07:49:26.578Z,35.41
2019-04-16T07:50:23.741Z,36.14
2019-04-16T07:51:23.721Z,36.85
2019-04-16T07:52:23.909Z,35.78
2019-04-16T07:53:23.757Z,36.53
2019-04-16T07:54:23.700Z,36.36
2019-04-16T07:55:26.303Z,37.07
2019-04-16T07:56:23.676Z,35.70
2019-04-16T07:57:23.667Z,35.17
2019-04-16T07:58:23.652Z,36.43
2019-04-16T07:59:23.698Z,35.60
2019-04-16T08:00:23.627Z,36.22
2019-04-16T08:01:23.619Z,36.41
2019-04-16T08:02:23.614Z,35.36
2019-04-16T08:03:26.885Z,35.17
2019-04-16T08:04:29.016Z,35.38
2019-04-16T08:05:27.658Z,35.90
2019-04-16T08:06:23.567Z,35.80
2019-04-16T08:07:23.554Z,35.38
2019-04-16T08:08:24.767Z,35.51
2019-04-16T08:09:23.570Z,36.32
2019-04-16T08:10:23.526Z,36.08
2019-04-16T08:11:23.520Z,35.19
2019-04-16T08:12:30.361Z,35.70
2019-04-16T08:13:24.500Z,36.29
2019-04-16T08:14:23.510Z,35.66
2019-04-16T08:15:23.489Z,35.80
2019-04-16T08:16:23.459Z,36.02
2019-04-16T08:17:23.453Z,35.19
2019-04-16T08:18:23.471Z,35.50
2019-04-16T08:19:36.192Z,34.77
2019-04-16T08:20:24.417Z,34.56
2019-04-16T08:21:23.405Z,35.50
2019-04-16T08:22:23.422Z,35.88
2019-04-16T08:23:23.406Z,34.43
2019-04-16T08:24:24.790Z,34.74
2019-04-16T08:25:23.367Z,34.31
2019-04-16T08:26:23.356Z,34.87
2019-04-16T08:27:23.344Z,34.85
2019-04-16T08:28:23.333Z,35.22
2019-04-16T08:29:26.334Z,33.37
2019-04-16T08:30:23.309Z,34.75
2019-04-16T08:31:23.334Z,35.14
2019-04-16T08:32:25.725Z,34.72
2019-04-16T08:33:28.278Z,35.06
2019-04-16T08:34:24.296Z,34.74
2019-04-16T08:35:23.264Z,34.62
2019-04-16T08:36:23.246Z,34.42
2019-04-16T08:37:23.239Z,34.59
2019-04-16T08:38:25.874Z,33.78
2019-04-16T08:39:23.271Z,33.81
2019-04-16T08:40:23.203Z,34.11
2019-04-16T08:41:23.204Z,34.11
2019-04-16T08:42:25.669Z,33.98
2019-04-16T08:43:23.176Z,33.05
2019-04-16T08:44:23.191Z,33.54
2019-04-16T08:45:23.153Z,33.24
2019-04-16T08:46:23.141Z,32.81
2019-04-16T08:47:23.135Z,32.18
2019-04-16T08:48:23.121Z,32.49
2019-04-16T08:49:23.143Z,31.07
2019-04-16T08:50:25.895Z,32.27
2019-04-16T08:51:30.254Z,32.10
2019-04-16T08:52:24.077Z,31.88
2019-04-16T08:53:23.141Z,32.18
2019-04-16T08:54:23.087Z,32.07
2019-04-16T08:55:23.637Z,32.07
2019-04-16T08:56:23.036Z,32.81
2019-04-16T08:57:23.032Z,31.88
2019-04-16T08:58:23.015Z,31.82
2019-04-16T08:59:23.032Z,34.09
2019-04-16T09:00:23.003Z,33.69
2019-04-16T09:01:23.605Z,33.36
2019-04-16T09:02:23.566Z,32.70
2019-04-16T09:03:22.967Z,32.27
2019-04-16T09:04:22.980Z,31.65
2019-04-16T09:05:22.944Z,31.88
2019-04-16T09:06:23.180Z,33.73
2019-04-16T09:07:22.922Z,33.95
2019-04-16T09:08:22.913Z,32.81
2019-04-16T09:09:24.804Z,33.02
2019-04-16T09:10:24.036Z,31.48
2019-04-16T09:11:23.876Z,31.91
2019-04-16T09:12:22.919Z,31.13
2019-04-16T09:13:22.866Z,30.32
2019-04-16T09:14:25.668Z,32.08
2019-04-16T09:15:22.866Z,31.24
2019-04-16T09:16:22.829Z,30.22
2019-04-16T09:17:22.815Z,32.30
2019-04-16T09:18:22.809Z,32.60
2019-04-16T09:19:22.797Z,31.35
2019-04-16T09:20:23.408Z,30.83
2019-04-16T09:21:22.776Z,30.84
2019-04-16T09:22:22.765Z,30.87
2019-04-16T09:23:26.669Z,30.83
2019-04-16T09:24:22.749Z,30.50
2019-04-16T09:25:22.762Z,32.15
2019-04-16T09:26:23.903Z,30.41
2019-04-16T09:27:22.716Z,31.23
2019-04-16T09:28:25.674Z,31.15
2019-04-16T09:29:22.698Z,31.45
2019-04-16T09:30:29.763Z,31.96
2019-04-16T09:31:23.175Z,32.18
2019-04-16T09:32:30.643Z,32.92
2019-04-16T09:33:22.653Z,32.26
2019-04-16T09:34:22.642Z,31.45
2019-04-16T09:35:22.660Z,30.83
2019-04-16T09:36:22.622Z,30.82
2019-04-16T09:37:25.416Z,30.73
2019-04-16T09:38:23.602Z,31.16
2019-04-16T09:39:22.838Z,31.90
2019-04-16T09:40:22.622Z,32.17
2019-04-16T09:41:22.579Z,30.86
2019-04-16T09:42:22.565Z,31.15
2019-04-16T09:43:22.551Z,31.23
2019-04-16T09:44:22.541Z,30.93
2019-04-16T09:45:24.765Z,32.49
2019-04-16T09:46:48.127Z,30.93
2019-04-16T09:47:23.509Z,31.60
2019-04-16T09:48:22.506Z,29.17
2019-04-16T09:49:22.489Z,30.24
2019-04-16T09:50:22.654Z,31.15
2019-04-16T09:51:25.233Z,30.10
2019-04-16T09:52:23.214Z,29.57
2019-04-16T09:53:32.612Z,30.40
2019-04-16T09:54:23.445Z,30.58
2019-04-16T09:55:22.567Z,30.07
2019-04-16T09:56:23.379Z,28.95
2019-04-16T09:57:24.364Z,30.30
2019-04-16T09:58:22.871Z,29.97
2019-04-16T09:59:22.386Z,29.91
2019-04-16T10:00:22.376Z,29.46
2019-04-16T10:01:22.404Z,30.40
2019-04-16T10:02:22.352Z,30.27
2019-04-16T10:03:22.574Z,30.55
2019-04-16T10:04:22.335Z,29.97
2019-04-16T10:05:22.325Z,29.74
2019-04-16T10:06:22.313Z,30.26
2019-04-16T10:07:22.389Z,29.05
2019-04-16T10:08:22.316Z,30.19
2019-04-16T10:09:22.678Z,31.39
2019-04-16T10:10:24.259Z,29.74
2019-04-16T10:11:23.265Z,29.62
2019-04-16T10:12:22.282Z,30.24
2019-04-16T10:13:30.725Z,30.05
2019-04-16T10:14:23.231Z,29.63
2019-04-16T10:15:22.235Z,30.40
2019-04-16T10:16:22.221Z,30.50
2019-04-16T10:17:22.223Z,29.55
2019-04-16T10:18:22.196Z,30.14
2019-04-16T10:19:22.290Z,30.47
2019-04-16T10:20:22.196Z,29.49
2019-04-16T10:21:22.206Z,28.30
2019-04-16T10:22:22.245Z,29.44
2019-04-16T10:23:22.167Z,29.62
2019-04-16T10:24:22.133Z,29.82
2019-04-16T10:25:22.148Z,29.50
2019-04-16T10:26:22.123Z,29.05
2019-04-16T10:27:22.271Z,29.88
2019-04-16T10:28:22.107Z,30.15
2019-04-16T10:29:22.098Z,28.99
2019-04-16T10:30:22.073Z,28.59
2019-04-16T10:31:22.086Z,28.82
2019-04-16T10:32:22.085Z,28.42
2019-04-16T10:33:22.054Z,29.57
2019-04-16T10:34:22.065Z,29.33
2019-04-16T10:35:22.027Z,28.88
2019-04-16T10:36:22.046Z,29.26
2019-04-16T10:37:22.210Z,28.45
2019-04-16T10:38:22.001Z,29.16
2019-04-16T10:39:21.985Z,29.16
2019-04-16T10:40:22.203Z,30.18
2019-04-16T10:41:22.051Z,29.53
2019-04-16T10:42:21.975Z,28.11
2019-04-16T10:43:22.080Z,28.31
2019-04-16T10:44:21.954Z,28.41
2019-04-16T10:45:21.932Z,28.22
2019-04-16T10:46:21.926Z,28.19
2019-04-16T10:47:22.009Z,28.64
2019-04-16T10:48:21.888Z,30.07
2019-04-16T10:49:21.914Z,29.42
2019-04-16T10:50:21.883Z,28.52
2019-04-16T10:51:21.868Z,28.20
2019-04-16T10:52:22.405Z,28.23
2019-04-16T10:53:21.869Z,29.85
2019-04-16T10:54:21.854Z,29.68
2019-04-16T10:55:21.825Z,29.57
2019-04-16T10:56:22.187Z,29.02
2019-04-16T10:57:21.826Z,29.55
2019-04-16T10:58:21.848Z,29.00
2019-04-16T10:59:21.781Z,28.09
2019-04-16T11:00:21.776Z,28.80
2019-04-16T11:01:21.803Z,27.67
2019-04-16T11:02:21.749Z,28.41
2019-04-16T11:03:21.779Z,28.52
2019-04-16T11:04:21.746Z,29.02
2019-04-16T11:05:21.733Z,28.39
2019-04-16T11:06:21.742Z,29.50
2019-04-16T11:07:21.751Z,28.42
2019-04-16T11:08:21.740Z,29.93
2019-04-16T11:09:21.685Z,28.49
2019-04-16T11:10:21.670Z,29.09
2019-04-16T11:11:21.662Z,27.48
2019-04-16T11:12:21.652Z,29.00
2019-04-16T11:13:21.685Z,28.38
2019-04-16T11:14:21.629Z,28.63
2019-04-16T11:15:21.668Z,29.35
2019-04-16T11:16:21.608Z,29.63
2019-04-16T11:17:21.603Z,29.05
2019-04-16T11:18:21.767Z,28.53
2019-04-16T11:19:21.587Z,29.31
2019-04-16T11:20:21.575Z,28.99
2019-04-16T11:21:21.591Z,28.46
2019-04-16T11:22:21.634Z,28.39
2019-04-16T11:23:21.554Z,29.21
2019-04-16T11:24:21.553Z,28.17
2019-04-16T11:25:21.517Z,28.39
2019-04-16T11:26:21.513Z,28.31
2019-04-16T11:27:21.503Z,29.61
2019-04-16T11:28:21.532Z,28.99
2019-04-16T11:29:21.551Z,28.29
2019-04-16T11:30:21.478Z,28.58
2019-04-16T11:31:21.496Z,27.69
2019-04-16T11:32:21.449Z,28.98
2019-04-16T11:33:21.458Z,27.55
2019-04-16T11:34:21.482Z,27.79
2019-04-16T11:35:32.256Z,28.26
2019-04-16T11:36:21.438Z,28.26
2019-04-16T11:37:21.432Z,28.53
2019-04-16T11:38:21.398Z,27.91
2019-04-16T11:39:21.417Z,28.11
2019-04-16T11:40:21.377Z,28.65
2019-04-16T11:41:21.365Z,28.55
2019-04-16T11:42:21.349Z,27.72
2019-04-16T11:43:21.340Z,27.19
2019-04-16T11:44:21.355Z,26.86
2019-04-16T11:45:21.317Z,27.52
2019-04-16T11:46:21.324Z,28.55
2019-04-16T11:47:21.343Z,27.65
2019-04-16T11:48:21.303Z,27.50
2019-04-16T11:49:21.409Z,26.89
2019-04-16T11:50:21.296Z,28.74
2019-04-16T11:51:21.287Z,28.62
2019-04-16T11:52:21.247Z,28.55
2019-04-16T11:53:21.244Z,28.23
2019-04-16T11:54:21.270Z,28.31
2019-04-16T11:55:21.249Z,28.19
2019-04-16T11:56:22.653Z,27.82
2019-04-16T11:57:21.202Z,27.48
2019-04-16T11:58:21.243Z,27.80
2019-04-16T11:59:21.257Z,28.14
2019-04-16T12:00:21.189Z,28.95
2019-04-16T12:01:23.013Z,28.64
2019-04-16T12:02:21.171Z,28.66
2019-04-16T12:03:21.183Z,28.46
2019-04-16T12:04:21.165Z,28.45
2019-04-16T12:05:21.135Z,28.11
2019-04-16T12:06:28.392Z,28.42
2019-04-16T12:07:22.126Z,28.23
2019-04-16T12:08:21.137Z,28.62
2019-04-16T12:09:21.123Z,28.95
2019-04-16T12:10:21.087Z,28.75
2019-04-16T12:11:21.081Z,29.05
2019-04-16T12:12:21.072Z,28.91
2019-04-16T12:13:21.074Z,28.55
2019-04-16T12:14:30.664Z,28.74
2019-04-16T12:15:22.027Z,28.36
2019-04-16T12:16:21.231Z,29.38
2019-04-16T12:17:21.011Z,27.78
2019-04-16T12:18:21.131Z,27.55
2019-04-16T12:19:21.043Z,27.11
2019-04-16T12:20:21.055Z,27.92
2019-04-16T12:21:20.975Z,27.75
2019-04-16T12:22:20.958Z,29.11
2019-04-16T12:23:20.955Z,28.09
2019-04-16T12:24:20.954Z,28.66
2019-04-16T12:25:20.995Z,28.35
2019-04-16T12:26:20.951Z,27.62
2019-04-16T12:27:20.937Z,27.50
2019-04-16T12:28:20.911Z,27.71
2019-04-16T12:29:23.140Z,29.24
2019-04-16T12:30:20.905Z,29.14
2019-04-16T12:31:20.906Z,28.56
2019-04-16T12:32:20.881Z,28.46
2019-04-16T12:33:20.895Z,29.28
2019-04-16T12:34:20.843Z,29.18
2019-04-16T12:35:20.880Z,28.78
2019-04-16T12:36:20.862Z,28.82
2019-04-16T12:37:20.843Z,27.59
2019-04-16T12:38:20.886Z,28.53
2019-04-16T12:39:20.816Z,29.44
2019-04-16T12:40:21.154Z,28.21
2019-04-16T12:41:20.828Z,28.22
2019-04-16T12:42:20.826Z,29.15
2019-04-16T12:43:20.762Z,28.92
2019-04-16T12:44:24.165Z,28.38
2019-04-16T12:45:20.810Z,27.77
2019-04-16T12:46:20.773Z,27.70
2019-04-16T12:47:20.749Z,27.51
2019-04-16T12:48:20.733Z,28.82
2019-04-16T12:49:20.690Z,28.50
2019-04-16T12:50:20.796Z,28.31
2019-04-16T12:51:20.753Z,28.92
2019-04-16T12:52:22.396Z,28.72